Time;durP1;ratioP1;P1;durP2;ratioP2;P2;SDS_P1;SDS_P2;PMS_P1;PMS_P2;Temp;Humidity;BMP_temperature;BMP_pressure;BME280_temperature;BME280_humidity;BME280_pressure;Samples;Min_cycle;Max_cycle;Signal;HPM_P1;HPM_P2
2022/02/03 00:01:49;;;;;;;4.05;3.03;;;6.80;92.50;;;;;;4975401;28;20027;-76
2022/02/03 00:04:17;;;;;;;4.68;3.30;;;6.80;92.40;;;;;;4968100;28;20480;-76
2022/02/03 00:06:51;;;;;;;4.28;3.17;;;6.80;92.40;;;;;;4975358;28;20090;-76
2022/02/03 00:23:06;;;;;;;6.10;4.32;;;6.70;92.10;;;;;;4975267;28;20038;-76
2022/02/03 00:25:29;;;;;;;5.47;3.83;;;6.70;92.10;;;;;;4974766;28;20023;-76
2022/02/03 00:28:23;;;;;;;4.45;3.40;;;6.70;92.20;;;;;;4975105;28;20079;-76
2022/02/03 00:33:27;;;;;;;5.15;3.90;;;6.70;92.30;;;;;;4975274;28;20030;-75
2022/02/03 00:36:02;;;;;;;4.03;3.10;;;6.70;92.30;;;;;;4974974;28;20460;-75
2022/02/03 00:49:19;;;;;;;4.18;3.30;;;6.60;92.70;;;;;;4974676;28;20558;-76
2022/02/03 00:51:51;;;;;;;5.95;3.85;;;6.60;92.80;;;;;;4974858;28;20408;-76
2022/02/03 00:54:21;;;;;;;3.88;2.75;;;6.70;92.80;;;;;;4974538;28;20506;-76
2022/02/03 00:57:06;;;;;;;5.40;3.13;;;6.70;92.80;;;;;;4957230;28;20383;-76
2022/02/03 00:59:40;;;;;;;4.32;3.10;;;6.70;92.80;;;;;;4974435;28;20035;-77
2022/02/03 01:02:11;;;;;;;6.70;3.28;;;6.60;92.50;;;;;;4957118;28;20030;-77
2022/02/03 01:04:39;;;;;;;4.72;3.45;;;6.60;92.50;;;;;;4974330;28;20019;-76
2022/02/03 01:07:11;;;;;;;3.85;2.90;;;6.60;92.50;;;;;;4974360;28;20035;-77
2022/02/03 01:09:42;;;;;;;4.60;3.15;;;6.60;92.70;;;;;;4974241;28;20026;-76
2022/02/03 01:12:20;;;;;;;3.58;2.97;;;6.60;92.80;;;;;;4974275;28;20061;-76
2022/02/03 01:43:52;;;;;;;6.07;2.90;;;6.60;93.30;;;;;;4974255;28;20018;-76
2022/02/03 01:46:29;;;;;;;6.63;2.15;;;6.60;93.40;;;;;;4973842;28;20475;-76
2022/02/03 01:49:15;;;;;;;3.67;2.22;;;6.60;93.40;;;;;;4974040;28;20031;-77
2022/02/03 01:51:56;;;;;;;4.25;2.08;;;6.60;93.40;;;;;;4973914;28;20023;-77
2022/02/03 01:54:27;;;;;;;2.15;1.85;;;6.60;93.50;;;;;;4973830;28;20023;-77
2022/02/03 01:57:12;;;;;;;3.00;2.05;;;6.50;93.60;;;;;;4974491;28;20023;-76
2022/02/03 01:59:40;;;;;;;1.92;1.52;;;6.50;93.70;;;;;;4972440;28;20031;-76
2022/02/03 02:02:07;;;;;;;3.00;2.20;;;6.60;93.70;;;;;;4973761;28;20026;-76
2022/02/03 02:04:50;;;;;;;3.22;1.85;;;6.60;93.60;;;;;;4973704;28;20098;-77
2022/02/03 02:07:40;;;;;;;3.80;2.33;;;6.50;93.50;;;;;;4973669;28;20179;-76
2022/02/03 02:39:25;;;;;;;3.03;2.20;;;6.40;93.60;;;;;;4973785;28;20106;-76
2022/02/03 02:44:33;;;;;;;3.80;2.80;;;6.40;93.50;;;;;;4975965;28;20023;-77
2022/02/03 02:47:00;;;;;;;3.30;2.88;;;6.40;93.60;;;;;;4977026;28;20479;-77
2022/02/03 02:49:46;;;;;;;4.90;3.15;;;6.40;93.60;;;;;;4976821;28;20035;-77
2022/02/03 02:52:21;;;;;;;4.22;3.05;;;6.40;93.60;;;;;;4977020;28;20027;-76
2022/02/03 03:33:58;;;;;;;7.47;4.55;;;6.20;92.90;;;;;;4913615;29;20025;-77
2022/02/03 03:36:26;;;;;;;8.57;5.05;;;6.20;92.90;;;;;;4916664;29;20032;-76
2022/02/03 03:38:54;;;;;;;6.40;4.32;;;6.10;92.80;;;;;;4949886;28;20070;-76
2022/02/03 03:41:20;;;;;;;5.70;3.70;;;6.00;92.80;;;;;;4975700;28;20038;-76
2022/02/03 03:44:01;;;;;;;8.43;4.88;;;6.00;92.90;;;;;;4975816;28;20432;-76
2022/02/03 03:46:35;;;;;;;7.72;5.07;;;6.00;92.80;;;;;;4975874;28;20038;-74
2022/02/03 03:49:13;;;;;;;8.65;5.20;;;6.00;93.00;;;;;;4958552;28;20023;-75
2022/02/03 03:51:43;;;;;;;7.13;4.82;;;6.10;93.10;;;;;;4975723;28;20025;-75
2022/02/03 03:54:13;;;;;;;4.78;2.85;;;6.10;93.10;;;;;;4975315;28;20023;-75
2022/02/03 03:57:00;;;;;;;5.25;2.50;;;6.00;92.70;;;;;;4975061;28;20051;-75
2022/02/03 04:43:32;;;;;;;2.45;2.03;;;5.80;92.90;;;;;;4974706;28;20166;-75
2022/02/03 05:01:53;;;;;;;13.43;5.75;;;5.80;92.80;;;;;;4974403;28;20034;-77
2022/02/03 05:04:43;;;;;;;13.50;7.53;;;5.90;92.90;;;;;;4974345;28;20479;-77
2022/02/03 05:19:24;;;;;;;16.67;9.68;;;5.90;92.10;;;;;;4974121;28;20037;-77
2022/02/03 05:25:31;;;;;;;22.27;11.50;;;5.90;92.50;;;;;;4973977;28;20023;-77
2022/02/03 05:43:42;;;;;;;4.25;2.78;;;6.10;92.20;;;;;;4973988;28;20387;-77
2022/02/03 06:05:33;;;;;;;2.22;0.70;;;6.40;88.20;;;;;;4978896;28;20038;-77
2022/02/03 06:08:15;;;;;;;1.95;1.42;;;6.40;87.40;;;;;;4973738;28;20033;-77
2022/02/03 06:13:49;;;;;;;1.43;1.20;;;6.30;89.10;;;;;;4967859;28;20022;-77
2022/02/03 06:21:31;;;;;;;1.80;1.30;;;6.20;88.50;;;;;;4977308;28;20518;-76
2022/02/03 06:29:14;;;;;;;3.35;1.85;;;6.30;88.40;;;;;;4969811;28;20510;-79
2022/02/03 06:31:45;;;;;;;2.88;2.20;;;6.30;88.70;;;;;;4976363;28;20039;-77
2022/02/03 06:34:11;;;;;;;2.28;1.80;;;6.20;88.80;;;;;;4977361;28;20030;-77
2022/02/03 06:36:38;;;;;;;5.80;2.65;;;6.30;89.10;;;;;;4976845;28;20027;-82
2022/02/03 06:39:22;;;;;;;4.03;2.40;;;6.20;89.00;;;;;;4976660;28;20105;-82
2022/02/03 06:41:54;;;;;;;4.07;2.50;;;6.20;89.20;;;;;;4976950;28;20039;-82
2022/02/03 06:44:36;;;;;;;13.45;8.32;;;6.20;88.90;;;;;;4960137;28;20027;-83
2022/02/03 06:47:24;;;;;;;10.32;6.07;;;6.20;88.90;;;;;;4976630;28;20440;-82
2022/02/03 06:52:26;;;;;;;2.63;1.90;;;6.20;87.70;;;;;;4977187;28;20035;-83
2022/02/03 06:55:06;;;;;;;1.75;0.95;;;6.20;88.30;;;;;;4978093;28;20468;-83
2022/02/03 06:57:41;;;;;;;1.23;0.90;;;6.20;87.70;;;;;;4977203;28;20078;-82
2022/02/03 07:00:17;;;;;;;1.40;0.90;;;6.20;87.10;;;;;;4976750;28;20522;-82
2022/02/03 07:02:44;;;;;;;1.48;1.27;;;6.30;86.90;;;;;;4976952;28;20031;-80
2022/02/03 07:05:10;;;;;;;3.33;1.85;;;6.30;86.30;;;;;;4976790;28;20019;-77
2022/02/03 07:07:40;;;;;;;3.63;2.63;;;6.40;86.60;;;;;;4976368;28;20078;-83
2022/02/03 07:10:10;;;;;;;1.45;1.25;;;6.40;86.70;;;;;;4976475;28;20501;-77
2022/02/03 07:12:36;;;;;;;1.88;1.40;;;6.40;86.80;;;;;;4976522;28;20524;-76
2022/02/03 07:15:04;;;;;;;0.70;0.52;;;6.40;86.90;;;;;;4976126;28;20102;-76
2022/02/03 07:17:30;;;;;;;1.02;0.93;;;6.30;85.30;;;;;;4976085;28;20082;-76
2022/02/03 07:20:01;;;;;;;1.40;1.30;;;6.40;85.60;;;;;;4974809;28;20030;-76
2022/02/03 07:22:27;;;;;;;1.38;0.90;;;6.50;86.00;;;;;;4976648;28;20452;-76
2022/02/03 07:24:52;;;;;;;4.60;0.70;;;6.50;85.70;;;;;;4975911;28;20082;-76
2022/02/03 07:27:19;;;;;;;1.13;0.70;;;6.50;85.70;;;;;;4975811;28;20031;-76
2022/02/03 07:29:45;;;;;;;3.40;1.20;;;6.50;85.50;;;;;;4975421;28;20035;-75
2022/02/03 07:32:10;;;;;;;0.90;0.73;;;6.50;85.50;;;;;;4975864;28;20034;-76
2022/02/03 07:34:36;;;;;;;0.57;0.50;;;6.50;83.50;;;;;;4975760;28;20085;-76
2022/02/03 07:37:01;;;;;;;1.08;0.70;;;6.50;83.50;;;;;;4975776;28;20478;-75
2022/02/03 07:39:27;;;;;;;1.08;0.60;;;6.50;83.70;;;;;;4975819;28;20126;-77
2022/02/03 07:41:53;;;;;;;1.70;0.90;;;6.40;83.50;;;;;;4975722;28;20408;-77
2022/02/03 07:44:18;;;;;;;1.08;0.63;;;6.50;83.90;;;;;;4977303;28;20050;-77
2022/02/03 07:46:44;;;;;;;0.90;0.50;;;6.50;84.10;;;;;;4975963;28;20468;-77
2022/02/03 07:49:09;;;;;;;5.72;0.80;;;6.60;84.10;;;;;;4967891;28;20031;-77
2022/02/03 07:51:35;;;;;;;3.58;1.00;;;6.60;84.20;;;;;;4975488;28;20034;-77
2022/02/03 07:54:04;;;;;;;1.17;0.90;;;6.60;84.80;;;;;;4976234;28;20111;-76
2022/02/03 07:56:31;;;;;;;1.10;0.60;;;6.70;84.40;;;;;;4976502;28;20110;-76
2022/02/03 07:58:56;;;;;;;3.35;1.17;;;6.70;83.80;;;;;;4978828;28;20101;-77
2022/02/03 08:01:22;;;;;;;2.00;1.45;;;6.70;83.40;;;;;;4983717;28;20058;-79
2022/02/03 08:03:48;;;;;;;2.53;1.35;;;6.60;83.50;;;;;;4975326;28;20094;-76
2022/02/03 08:06:23;;;;;;;1.70;1.25;;;6.50;84.30;;;;;;4973965;28;20142;-77
2022/02/03 08:08:53;;;;;;;2.05;1.58;;;6.50;83.80;;;;;;4975515;28;20095;-76
2022/02/03 08:11:25;;;;;;;2.08;1.45;;;6.50;83.80;;;;;;4974980;28;20027;-76
2022/02/03 08:16:34;;;;;;;1.23;1.10;;;6.60;83.60;;;;;;4975059;28;20114;-76
2022/02/03 08:19:09;;;;;;;2.03;1.23;;;6.50;84.20;;;;;;4975228;28;20025;-76
2022/02/03 08:21:38;;;;;;;1.83;1.15;;;6.50;83.50;;;;;;4975047;28;20535;-76
2022/02/03 08:24:23;;;;;;;2.10;1.13;;;6.50;83.90;;;;;;4973748;28;20027;-76
2022/02/03 08:27:03;;;;;;;1.83;1.42;;;6.50;83.60;;;;;;4974873;28;20054;-76
2022/02/03 08:29:48;;;;;;;1.77;1.40;;;6.60;83.40;;;;;;4974692;28;20043;-83
2022/02/03 08:32:16;;;;;;;3.10;2.03;;;6.70;83.40;;;;;;4975063;28;20451;-77
2022/02/03 08:35:07;;;;;;;1.80;1.25;;;6.70;83.00;;;;;;4974929;28;20027;-76
2022/02/03 08:37:53;;;;;;;2.53;1.50;;;6.80;82.70;;;;;;4974680;28;20019;-77
2022/02/03 08:40:26;;;;;;;1.58;1.20;;;6.90;82.50;;;;;;4967235;28;20055;-77
2022/02/03 08:42:52;;;;;;;1.40;1.30;;;6.90;82.40;;;;;;4973660;28;20046;-78
2022/02/03 08:45:18;;;;;;;1.30;1.20;;;7.00;82.50;;;;;;4974335;28;20067;-76
2022/02/03 08:47:43;;;;;;;4.00;2.90;;;7.00;81.50;;;;;;4974345;28;20094;-76
2022/02/03 08:50:09;;;;;;;3.78;2.80;;;7.00;81.70;;;;;;4974711;28;20476;-77
2022/02/03 08:52:50;;;;;;;6.70;4.47;;;7.10;81.70;;;;;;4974588;28;20027;-82
2022/02/03 09:32:24;;;;;;;1.88;1.50;;;7.90;76.90;;;;;;4968345;28;20054;-77
2022/02/03 09:59:40;;;;;;;1.02;0.93;;;9.70;72.40;;;;;;4978153;28;20045;-77
2022/02/03 10:02:12;;;;;;;1.33;1.23;;;10.00;70.80;;;;;;4979024;28;20078;-77
2022/02/03 10:04:46;;;;;;;1.13;1.02;;;10.50;69.70;;;;;;4995824;28;20023;-77
2022/02/03 10:07:56;;;;;;;1.35;0.88;;;10.70;68.00;;;;;;4978169;28;20115;-77
2022/02/03 10:10:08;;;;;;;1.30;0.95;;;10.60;66.80;;;;;;4964841;28;20029;-77
2022/02/03 10:12:39;;;;;;;0.98;0.88;;;10.70;67.70;;;;;;4977297;28;20034;-77
2022/02/03 10:15:06;;;;;;;2.47;1.48;;;10.80;66.70;;;;;;4977438;28;20030;-78
2022/02/03 10:17:40;;;;;;;2.00;1.20;;;10.60;66.90;;;;;;4977153;28;20034;-78
2022/02/03 10:20:10;;;;;;;2.58;1.40;;;10.70;67.10;;;;;;4977254;28;20038;-77
2022/02/03 10:22:52;;;;;;;1.27;1.00;;;10.70;67.10;;;;;;4977108;28;20035;-77
2022/02/03 10:25:24;;;;;;;1.00;0.90;;;10.80;67.40;;;;;;4977246;28;20078;-78
2022/02/03 10:28:05;;;;;;;2.45;1.15;;;10.80;66.30;;;;;;4977086;28;20133;-78
2022/02/03 10:30:39;;;;;;;1.20;1.10;;;10.60;67.00;;;;;;4977119;28;20511;-78
2022/02/03 10:33:05;;;;;;;1.42;1.10;;;10.40;68.30;;;;;;4977114;28;20022;-77
2022/02/03 10:35:46;;;;;;;1.83;1.40;;;10.30;69.00;;;;;;4976925;28;20027;-77
2022/02/03 10:51:50;;;;;;;1.50;1.40;;;9.40;73.00;;;;;;4976430;28;20109;-77
2022/02/03 11:00:03;;;;;;;1.42;1.30;;;9.10;74.70;;;;;;4976418;28;20030;-77
2022/02/03 11:08:20;;;;;;;1.45;1.33;;;9.50;73.20;;;;;;4954179;28;20082;-77
2022/02/03 11:10:57;;;;;;;1.70;1.23;;;9.40;73.30;;;;;;4974687;28;20031;-77
2022/02/03 11:13:32;;;;;;;1.65;1.45;;;9.50;73.30;;;;;;4976001;28;20027;-77
2022/02/03 11:16:04;;;;;;;1.48;1.10;;;9.50;72.50;;;;;;4976026;28;20034;-78
2022/02/03 11:18:32;;;;;;;1.80;1.25;;;9.50;72.60;;;;;;4975910;28;20039;-78
2022/02/03 11:20:59;;;;;;;1.50;1.40;;;9.60;72.80;;;;;;4975745;28;20439;-78
2022/02/03 11:26:16;;;;;;;3.75;1.83;;;9.60;72.50;;;;;;4975856;28;20023;-78
2022/02/03 11:29:04;;;;;;;2.60;1.45;;;9.60;72.40;;;;;;4975859;28;20075;-78
2022/02/03 11:37:39;;;;;;;1.77;1.20;;;9.80;72.60;;;;;;4975834;28;20455;-78
2022/02/03 11:45:54;;;;;;;1.10;1.00;;;9.60;72.40;;;;;;4975345;28;20034;-78
2022/02/03 11:54:50;;;;;;;3.80;1.40;;;9.40;74.30;;;;;;4968433;28;20126;-77
2022/02/03 12:19:20;;;;;;;3.10;1.30;;;9.50;73.20;;;;;;4975281;28;20074;-76
2022/02/03 12:22:02;;;;;;;1.65;1.00;;;9.60;73.10;;;;;;4974755;28;20042;-79
2022/02/03 12:27:33;;;;;;;1.27;0.95;;;9.60;73.30;;;;;;4966077;28;20567;-77
2022/02/03 12:30:04;;;;;;;1.15;0.75;;;9.80;72.90;;;;;;4974644;28;20042;-78
2022/02/03 12:38:18;;;;;;;;;;;10.20;71.50;;;;;;5018753;27;20396;-77
2022/02/03 12:40:52;;;;;;;3.80;1.17;;;10.40;71.20;;;;;;4986837;28;19933;-77
2022/02/03 12:45:50;;;;;;;1.35;1.25;;;10.50;70.40;;;;;;4987229;28;20463;-78
2022/02/03 12:48:25;;;;;;;1.38;1.02;;;10.60;70.20;;;;;;4986772;28;20113;-78
2022/02/03 12:50:53;;;;;;;2.65;1.27;;;10.60;70.00;;;;;;4986943;28;20015;-78
2022/02/03 12:53:19;;;;;;;2.08;1.25;;;10.50;70.10;;;;;;4986955;28;20050;-77
2022/02/03 12:55:50;;;;;;;1.75;1.20;;;10.40;70.10;;;;;;4986888;28;20068;-77
2022/02/03 12:58:21;;;;;;;1.08;0.80;;;10.20;71.10;;;;;;4987095;28;20083;-77
2022/02/03 13:00:58;;;;;;;1.85;1.27;;;10.20;70.90;;;;;;4987225;28;20455;-77
2022/02/03 13:03:52;;;;;;;1.73;1.20;;;10.00;71.40;;;;;;4987133;28;20475;-77
2022/02/03 13:06:24;;;;;;;1.75;1.38;;;9.80;72.40;;;;;;4986998;28;20026;-77
2022/02/03 13:08:55;;;;;;;2.08;1.20;;;9.80;71.90;;;;;;4986881;28;20061;-77
2022/02/03 13:19:55;;;;;;;1.95;1.08;;;9.80;71.80;;;;;;4986654;28;20037;-78
2022/02/03 13:22:19;;;;;;;4.90;1.67;;;10.10;71.50;;;;;;4986711;28;20030;-77
2022/02/03 13:31:21;;;;;;;1.95;0.90;;;10.40;70.10;;;;;;4987476;28;20084;-77
2022/02/03 13:33:26;;;;;;;1.55;1.02;;;10.40;69.00;;;;;;5000369;28;20023;-77
2022/02/03 13:38:26;;;;;;;2.25;0.88;;;10.20;69.60;;;;;;4987965;28;20034;-78
2022/02/03 13:41:15;;;;;;;4.28;1.38;;;10.10;69.80;;;;;;4987822;28;20532;-84
2022/02/03 13:43:43;;;;;;;2.55;1.10;;;10.00;71.30;;;;;;4987435;28;20029;-85
2022/02/03 13:46:11;;;;;;;1.60;0.93;;;10.00;70.70;;;;;;4986840;28;20109;-84
2022/02/03 13:48:39;;;;;;;2.03;1.42;;;10.20;71.20;;;;;;4977451;28;20035;-82
2022/02/03 13:51:09;;;;;;;1.80;1.20;;;10.20;70.90;;;;;;4973827;28;20065;-83
2022/02/03 13:53:42;;;;;;;3.67;1.33;;;10.20;70.40;;;;;;4973383;28;20029;-82
2022/02/03 14:28:39;;;;;;;2.25;1.55;;;10.00;71.10;;;;;;4975879;28;20076;-83
2022/02/03 14:31:07;;;;;;;1.73;1.52;;;10.00;71.40;;;;;;4973032;28;20096;-84
2022/02/03 14:33:36;;;;;;;4.05;2.17;;;9.90;71.60;;;;;;4972903;28;20050;-83
2022/02/03 14:36:11;;;;;;;4.80;1.95;;;9.90;71.80;;;;;;4975599;28;20498;-83
2022/02/03 14:38:47;;;;;;;3.22;1.75;;;9.90;71.70;;;;;;4973173;28;20053;-81
2022/02/03 14:41:21;;;;;;;;;;;9.90;71.60;;;;;;4972361;28;20046;-83
2022/02/03 14:43:47;;;;;;;2.63;1.25;;;10.00;71.10;;;;;;4972587;28;19910;-83
2022/02/03 14:46:15;;;;;;;1.38;1.08;;;10.00;71.30;;;;;;4972632;28;20429;-84
2022/02/03 14:48:43;;;;;;;3.88;1.27;;;10.00;71.40;;;;;;4972836;28;20045;-84
2022/02/03 14:51:15;;;;;;;2.53;1.60;;;10.10;71.30;;;;;;4972803;28;20015;-83
2022/02/03 14:53:57;;;;;;;4.22;1.27;;;10.10;71.40;;;;;;4973046;28;20027;-84
2022/02/03 14:59:08;;;;;;;1.88;1.08;;;10.00;71.70;;;;;;4971977;28;20076;-85
2022/02/03 15:01:34;;;;;;;1.92;1.23;;;10.00;71.50;;;;;;4972354;28;20027;-84
2022/02/03 15:04:05;;;;;;;2.92;1.52;;;10.00;72.10;;;;;;4972504;28;20023;-84
2022/02/03 15:12:08;;;;;;;2.65;1.48;;;9.90;71.70;;;;;;4973196;28;20049;-82
2022/02/03 15:14:34;;;;;;;3.28;2.03;;;9.80;71.80;;;;;;4972691;28;20059;-84
2022/02/03 15:17:00;;;;;;;5.05;3.30;;;9.70;72.20;;;;;;4973318;28;20457;-85
2022/02/03 15:19:26;;;;;;;5.75;3.78;;;9.70;72.40;;;;;;4973424;28;20073;-84
2022/02/03 15:21:51;;;;;;;4.68;2.50;;;9.60;72.60;;;;;;4972552;28;20041;-84
2022/02/03 15:24:17;;;;;;;4.65;3.03;;;9.50;72.60;;;;;;4971982;28;20029;-85
2022/02/03 15:26:42;;;;;;;6.88;3.15;;;9.50;72.90;;;;;;4972141;28;20027;-81
2022/02/03 15:29:08;;;;;;;4.55;2.85;;;9.40;73.20;;;;;;4972011;28;20030;-85
2022/02/03 15:31:34;;;;;;;5.05;3.33;;;9.30;73.50;;;;;;4970900;28;20027;-82
2022/02/03 15:34:16;;;;;;;7.70;3.92;;;9.30;73.60;;;;;;4971913;28;20375;-83
2022/02/03 15:36:47;;;;;;;12.05;6.20;;;9.20;73.70;;;;;;4971819;28;20064;-83
2022/02/03 15:39:19;;;;;;;3.95;2.55;;;9.20;73.80;;;;;;4971899;28;20121;-83
2022/02/03 15:41:45;;;;;;;6.05;3.47;;;9.10;74.20;;;;;;4971943;28;20467;-82
2022/02/03 15:44:10;;;;;;;6.20;3.10;;;9.00;75.00;;;;;;4971850;28;20357;-79
2022/02/03 15:46:43;;;;;;;4.82;2.88;;;8.90;75.40;;;;;;4970376;28;20026;-79
2022/02/03 16:02:36;;;;;;;6.57;3.05;;;8.70;76.40;;;;;;4971638;28;20117;-77
2022/02/03 16:13:31;;;;;;;8.85;4.15;;;8.60;76.50;;;;;;4971542;28;20086;-83
2022/02/03 16:16:47;;;;;;;7.88;3.63;;;8.50;76.80;;;;;;4971362;28;20026;-78
2022/02/03 16:18:44;;;;;;;10.02;4.05;;;8.50;77.00;;;;;;4971299;28;20390;-78
2022/02/03 16:21:35;;;;;;;5.78;3.28;;;8.50;77.20;;;;;;4971232;28;20023;-81
2022/02/03 16:40:51;;;;;;;10.63;5.32;;;8.30;78.40;;;;;;4971771;28;20029;-82
2022/02/03 16:53:42;;;;;;;6.53;2.97;;;7.90;80.80;;;;;;4971068;28;20088;-83
2022/02/03 16:56:11;;;;;;;3.65;2.35;;;7.90;81.10;;;;;;4971061;28;20077;-85
2022/02/03 16:58:37;;;;;;;5.78;3.10;;;7.90;81.30;;;;;;4971151;28;20047;-85
2022/02/03 17:01:03;;;;;;;5.88;3.67;;;7.80;81.50;;;;;;4971081;28;20148;-85
2022/02/03 17:03:29;;;;;;;7.68;3.53;;;7.80;81.70;;;;;;4971098;28;20027;-85
2022/02/03 17:05:55;;;;;;;7.45;4.18;;;7.80;81.80;;;;;;4971168;28;20023;-83
2022/02/03 17:08:21;;;;;;;6.00;3.78;;;7.80;82.00;;;;;;4970561;28;20031;-85
2022/02/03 17:10:47;;;;;;;6.95;4.80;;;7.70;81.60;;;;;;4970026;28;20031;-85
2022/02/03 17:13:13;;;;;;;9.88;5.07;;;7.70;81.20;;;;;;4970861;28;20030;-86
2022/02/03 17:15:39;;;;;;;7.70;5.53;;;7.60;81.60;;;;;;4970939;28;20426;-85
2022/02/03 17:18:05;;;;;;;7.60;4.90;;;7.50;81.30;;;;;;4971007;28;20038;-84
2022/02/03 17:20:34;;;;;;;8.27;4.63;;;7.40;81.40;;;;;;4971016;28;20023;-83
2022/02/03 17:23:00;;;;;;;7.03;4.80;;;7.50;81.60;;;;;;4971791;28;20023;-84
2022/02/03 17:25:49;;;;;;;7.75;5.18;;;7.40;81.70;;;;;;4973967;28;20547;-83
2022/02/03 17:28:21;;;;;;;10.70;5.22;;;7.40;82.00;;;;;;4974210;28;20069;-84
2022/02/03 17:31:00;;;;;;;7.10;4.65;;;7.40;82.00;;;;;;4974051;28;20384;-82
2022/02/03 17:53:37;;;;;;;7.93;4.72;;;7.30;82.60;;;;;;4973345;28;20114;-84
2022/02/03 18:03:03;;;;;;;4.80;3.28;;;7.20;82.70;;;;;;4973643;28;20042;-83
2022/02/03 18:17:58;;;;;;;5.50;3.40;;;6.90;83.40;;;;;;4973431;28;20088;-82
2022/02/03 18:25:52;;;;;;;5.97;4.38;;;6.90;83.60;;;;;;4973633;28;20367;-86
2022/02/03 18:26:05;;;;;;;5.90;4.32;;;6.90;83.60;;;;;;4973632;28;20030;-83
2022/02/03 18:31:04;;;;;;;9.80;5.45;;;6.80;83.70;;;;;;4973387;28;20467;-85
2022/02/03 18:52:01;;;;;;;13.07;7.50;;;6.70;82.50;;;;;;4972697;28;20042;-84
2022/02/03 18:54:34;;;;;;;10.07;5.50;;;6.60;82.30;;;;;;4972679;28;20033;-83
2022/02/03 18:57:31;;;;;;;8.25;4.95;;;6.60;82.10;;;;;;4972827;28;20054;-84
2022/02/03 19:03:12;;;;;;;10.75;5.88;;;6.70;81.90;;;;;;4972973;28;20033;-77
2022/02/03 19:57:25;;;;;;;7.88;4.13;;;6.60;77.40;;;;;;4971737;28;20483;-75
2022/02/03 20:02:55;;;;;;;8.60;4.97;;;6.50;76.70;;;;;;4971737;28;20042;-75
2022/02/03 20:05:29;;;;;;;6.43;4.47;;;6.60;77.60;;;;;;4971502;28;20092;-75
2022/02/03 20:08:01;;;;;;;7.03;4.90;;;6.60;77.00;;;;;;4971698;28;20079;-74
2022/02/03 20:10:42;;;;;;;7.47;4.40;;;6.50;77.00;;;;;;4971600;28;20019;-78
2022/02/03 20:13:09;;;;;;;6.75;4.78;;;6.50;77.10;;;;;;4970392;28;20034;-75
2022/02/03 20:15:37;;;;;;;9.88;5.22;;;6.40;76.60;;;;;;4971554;28;20502;-78
2022/02/03 20:18:11;;;;;;;8.60;4.88;;;6.40;77.10;;;;;;4971385;28;20035;-75
2022/02/03 20:20:37;;;;;;;7.82;4.30;;;6.40;77.20;;;;;;4971479;28;20054;-75
2022/02/03 20:23:08;;;;;;;7.72;4.57;;;6.30;77.20;;;;;;4971459;28;20087;-75
2022/02/03 20:25:34;;;;;;;6.20;3.97;;;6.30;77.60;;;;;;4971313;28;20019;-75
2022/02/03 20:28:02;;;;;;;7.07;4.47;;;6.20;77.00;;;;;;4971389;28;20019;-75
2022/02/03 20:30:28;;;;;;;9.48;5.25;;;6.30;76.70;;;;;;4971249;28;20080;-76
2022/02/03 20:32:54;;;;;;;10.77;5.95;;;6.20;76.80;;;;;;4971465;28;20474;-74
2022/02/03 20:35:19;;;;;;;10.10;6.03;;;6.30;77.30;;;;;;4971292;28;20038;-75
2022/02/03 20:37:45;;;;;;;8.55;5.57;;;6.30;77.50;;;;;;4971026;28;20050;-75
2022/02/03 20:40:11;;;;;;;8.25;4.70;;;6.30;77.70;;;;;;4971317;28;20035;-77
2022/02/03 20:42:37;;;;;;;8.88;5.25;;;6.20;77.70;;;;;;4971212;28;20027;-77
2022/02/03 20:45:03;;;;;;;7.07;4.90;;;6.10;77.60;;;;;;4971253;28;20088;-77
2022/02/03 20:47:31;;;;;;;8.68;4.88;;;6.10;77.60;;;;;;4971045;28;20035;-78
2022/02/03 20:49:57;;;;;;;8.20;4.68;;;6.10;77.20;;;;;;4971252;28;20076;-76
2022/02/03 20:52:23;;;;;;;10.75;5.38;;;6.10;77.50;;;;;;4970251;28;20360;-77
2022/02/03 20:54:48;;;;;;;11.38;7.40;;;6.10;77.70;;;;;;4979897;28;20041;-77
2022/02/03 20:57:14;;;;;;;8.48;6.05;;;6.10;77.40;;;;;;4978339;28;20432;-78
2022/02/03 21:02:52;;;;;;;11.25;4.93;;;6.00;77.00;;;;;;4974660;28;20034;-79
2022/02/03 21:05:16;;;;;;;8.68;4.78;;;6.00;77.60;;;;;;4974460;28;20025;-78
2022/02/03 21:07:47;;;;;;;7.32;4.40;;;5.90;77.80;;;;;;4974366;28;20023;-74
2022/02/03 21:10:18;;;;;;;11.80;5.35;;;5.80;77.00;;;;;;4974384;28;20027;-76
2022/02/03 21:12:45;;;;;;;7.82;4.55;;;5.80;77.00;;;;;;4974458;28;20478;-75
2022/02/03 21:15:13;;;;;;;8.05;3.92;;;5.70;77.20;;;;;;4974361;28;20019;-75
2022/02/03 21:17:39;;;;;;;7.70;4.82;;;5.80;76.90;;;;;;4974269;28;20436;-79
2022/02/03 21:20:13;;;;;;;7.50;4.20;;;5.80;76.60;;;;;;4974269;28;20019;-75
2022/02/03 21:22:39;;;;;;;8.05;4.00;;;5.80;76.40;;;;;;4974246;28;20474;-75
2022/02/03 21:25:32;;;;;;;8.20;4.90;;;5.80;76.30;;;;;;4974242;28;20030;-77
2022/02/03 21:28:08;;;;;;;6.80;4.40;;;5.80;76.30;;;;;;4974139;28;20459;-77
2022/02/03 21:30:34;;;;;;;7.60;4.50;;;5.80;76.60;;;;;;4974415;28;20050;-77
2022/02/03 21:33:00;;;;;;;6.22;4.07;;;5.80;76.20;;;;;;4974181;28;20015;-76
2022/02/03 21:35:27;;;;;;;6.43;4.22;;;5.70;76.40;;;;;;4974139;28;20057;-76
2022/02/03 21:37:53;;;;;;;6.45;4.35;;;5.80;76.40;;;;;;4974130;28;20042;-82
2022/02/03 21:40:20;;;;;;;7.43;4.63;;;5.70;76.60;;;;;;4973961;28;20030;-76
2022/02/03 21:42:47;;;;;;;6.20;3.92;;;5.70;76.50;;;;;;4973982;28;20379;-77
2022/02/03 21:45:16;;;;;;;6.57;3.85;;;5.70;76.50;;;;;;4973974;28;20069;-79
2022/02/03 21:47:42;;;;;;;6.47;4.28;;;5.60;76.70;;;;;;4974186;28;20029;-82
2022/02/03 21:50:08;;;;;;;5.57;3.92;;;5.60;76.90;;;;;;4972720;28;20023;-78
2022/02/03 21:52:43;;;;;;;6.68;4.75;;;5.60;77.00;;;;;;4974031;28;20031;-77
2022/02/03 21:55:09;;;;;;;6.65;3.85;;;5.60;77.00;;;;;;4973798;28;20019;-78
2022/02/03 21:57:40;;;;;;;10.40;4.50;;;5.60;76.90;;;;;;4973894;28;20049;-84
2022/02/03 22:00:08;;;;;;;8.05;4.05;;;5.60;77.00;;;;;;4974032;28;20076;-83
2022/02/03 22:02:33;;;;;;;6.80;4.18;;;5.60;76.80;;;;;;4973607;28;20049;-78
2022/02/03 22:05:01;;;;;;;8.27;4.80;;;5.60;76.70;;;;;;4973715;28;20023;-77
2022/02/03 22:07:26;;;;;;;5.97;3.78;;;5.60;76.70;;;;;;4973528;28;20023;-77
2022/02/03 22:09:52;;;;;;;8.02;4.05;;;5.60;76.50;;;;;;4973034;28;20023;-76
2022/02/03 22:12:17;;;;;;;7.93;4.35;;;5.60;76.30;;;;;;4973432;28;20043;-76
2022/02/03 22:14:43;;;;;;;7.65;4.35;;;5.60;76.40;;;;;;4972297;28;20027;-76
2022/02/03 22:17:09;;;;;;;5.95;4.30;;;5.60;76.40;;;;;;4973350;28;20448;-76
2022/02/03 22:19:38;;;;;;;9.35;4.72;;;5.60;76.10;;;;;;4973653;28;20025;-76
2022/02/03 22:24:46;;;;;;;8.38;4.60;;;5.60;76.20;;;;;;4973332;28;20080;-78
2022/02/03 22:43:53;;;;;;;8.43;4.78;;;5.40;77.00;;;;;;4973105;28;20462;-76
2022/02/03 22:49:05;;;;;;;6.15;3.72;;;5.40;77.10;;;;;;4973048;28;20475;-76
2022/02/03 22:51:35;;;;;;;6.10;3.72;;;5.40;77.30;;;;;;4972885;28;20031;-76
2022/02/03 22:54:01;;;;;;;7.13;3.85;;;5.30;77.40;;;;;;4973140;28;20418;-76
2022/02/03 22:56:27;;;;;;;7.88;3.80;;;5.40;77.30;;;;;;4973089;28;20030;-75
2022/02/03 22:59:25;;;;;;;8.05;4.43;;;5.40;77.20;;;;;;4973938;28;20030;-76
2022/02/03 23:01:47;;;;;;;7.90;4.28;;;5.30;77.30;;;;;;4973288;28;20030;-76
2022/02/03 23:04:16;;;;;;;8.07;3.95;;;5.30;77.40;;;;;;4980748;28;20399;-76
2022/02/03 23:06:41;;;;;;;7.25;4.38;;;5.30;77.40;;;;;;4971986;28;20031;-76
2022/02/03 23:09:16;;;;;;;5.25;3.63;;;5.30;77.50;;;;;;4973052;28;20544;-76
2022/02/03 23:14:37;;;;;;;5.50;3.80;;;5.30;77.70;;;;;;4972742;28;20076;-77
2022/02/03 23:17:18;;;;;;;6.30;3.60;;;5.20;77.50;;;;;;4972541;28;20124;-77
2022/02/03 23:20:29;;;;;;;8.18;4.57;;;5.20;77.60;;;;;;4972428;28;20023;-76
2022/02/03 23:22:33;;;;;;;10.38;4.43;;;5.10;78.00;;;;;;4979809;28;20395;-79
2022/02/03 23:25:00;;;;;;;10.35;5.70;;;5.00;78.10;;;;;;4972422;28;20027;-76
2022/02/03 23:29:52;;;;;;;7.50;4.43;;;5.00;78.70;;;;;;4972618;28;20080;-76
2022/02/03 23:32:18;;;;;;;9.65;5.07;;;5.00;78.80;;;;;;4972283;28;20023;-77
2022/02/03 23:34:49;;;;;;;8.82;4.65;;;5.00;78.70;;;;;;4972535;28;20490;-76
2022/02/03 23:37:15;;;;;;;6.45;3.70;;;5.00;78.50;;;;;;4972032;28;20411;-78
2022/02/03 23:46:02;;;;;;;7.00;4.53;;;4.90;78.70;;;;;;4972354;28;20068;-76
